Time;durP1;ratioP1;P1;durP2;ratioP2;P2;SDS_P1;SDS_P2;PMS_P1;PMS_P2;Temp;Humidity;BMP_temperature;BMP_pressure;BME280_temperature;BME280_humidity;BME280_pressure;Samples;Min_cycle;Max_cycle;Signal;HPM_P1;HPM_P2
2023/03/11 00:00:47;;;;;;;0.30;0.30;;;;;;;9.94;67.11;97128.09;4472512;32;33439;-81
2023/03/11 00:03:17;;;;;;;0.85;0.82;;;;;;;9.61;68.54;97127.78;4472827;32;34303;-79
2023/03/11 00:05:46;;;;;;;0.35;0.35;;;;;;;9.59;68.32;97117.47;4486434;32;34941;-80
2023/03/11 00:08:17;;;;;;;0.40;0.40;;;;;;;9.57;68.58;97127.06;4459381;32;33713;-79
2023/03/11 00:10:47;;;;;;;0.30;0.30;;;;;;;9.76;67.35;97123.69;4472479;32;34372;-79
2023/03/11 00:13:15;;;;;;;0.40;0.40;;;;;;;9.75;67.84;97122.84;4486380;32;33426;-82
2023/03/11 00:15:47;;;;;;;0.37;0.37;;;;;;;9.58;67.93;97128.78;4486320;32;35121;-77
2023/03/11 00:18:16;;;;;;;0.43;0.43;;;;;;;9.81;66.61;97129.53;4472448;32;34236;-79
2023/03/11 00:20:45;;;;;;;0.30;0.30;;;;;;;9.82;66.73;97118.22;4486400;32;33351;-77
2023/03/11 00:23:14;;;;;;;0.30;0.30;;;;;;;9.75;65.94;97122.84;4472354;32;34594;-78
2023/03/11 00:25:44;;;;;;;0.40;0.40;;;;;;;9.75;65.29;97116.81;4486246;32;35069;-79
2023/03/11 00:28:14;;;;;;;0.45;0.45;;;;;;;9.58;66.06;97120.13;4472104;32;34443;-78
2023/03/11 00:30:43;;;;;;;0.30;0.30;;;;;;;9.74;64.78;97123.78;4486243;32;33633;-82
2023/03/11 00:33:14;;;;;;;0.50;0.50;;;;;;;9.85;64.20;97115.50;4486201;32;34424;-81
2023/03/11 00:35:43;;;;;;;0.30;0.30;;;;;;;9.82;63.56;97123.44;4472221;32;35090;-78
2023/03/11 00:38:14;;;;;;;0.40;0.40;;;;;;;9.85;63.24;97121.53;4472198;32;34525;-85
2023/03/11 00:40:45;;;;;;;0.40;0.40;;;;;;;9.88;63.19;97141.34;4486266;32;33687;-79
2023/03/11 00:43:14;;;;;;;0.40;0.40;;;;;;;9.77;62.68;97138.38;4485863;32;33962;-83
2023/03/11 00:45:42;;;;;;;0.40;0.40;;;;;;;9.56;63.44;97130.56;4486034;32;35130;-79
2023/03/11 00:48:11;;;;;;;0.30;0.30;;;;;;;9.86;61.95;97143.16;4486001;32;35022;-80
2023/03/11 00:50:40;;;;;;;0.40;0.40;;;;;;;10.01;60.90;97141.69;4472429;32;33441;-79
2023/03/11 00:53:09;;;;;;;0.30;0.30;;;;;;;9.85;61.51;97138.91;4485962;32;33816;-79
2023/03/11 00:55:37;;;;;;;0.35;0.35;;;;;;;9.88;61.50;97151.75;4486060;32;35034;-79
2023/03/11 00:58:06;;;;;;;0.80;0.80;;;;;;;9.99;60.34;97141.75;4486314;32;35080;-79
2023/03/11 01:00:35;;;;;;;0.40;0.40;;;;;;;10.00;59.53;97151.22;4472410;32;33456;-81
2023/03/11 01:03:03;;;;;;;0.40;0.40;;;;;;;10.03;60.15;97139.84;4486020;32;33894;-79
2023/03/11 01:05:33;;;;;;;0.40;0.40;;;;;;;9.97;59.67;97140.97;4485768;32;35772;-78
2023/03/11 01:08:02;;;;;;;0.40;0.40;;;;;;;9.94;59.92;97140.25;4485918;32;34480;-78
2023/03/11 01:10:32;;;;;;;0.30;0.30;;;;;;;9.65;60.09;97140.59;4471887;32;33422;-82
2023/03/11 01:13:02;;;;;;;0.40;0.40;;;;;;;9.28;61.30;97136.94;4472308;32;33884;-78
2023/03/11 01:15:32;;;;;;;0.40;0.40;;;;;;;9.82;60.09;97144.22;4471956;32;35778;-79
2023/03/11 01:18:02;;;;;;;0.40;0.40;;;;;;;9.34;61.22;97135.00;4485966;32;34566;-78
2023/03/11 01:20:31;;;;;;;0.40;0.40;;;;;;;9.41;61.25;97137.25;4472418;32;32918;-77
2023/03/11 01:22:59;;;;;;;0.40;0.40;;;;;;;9.43;60.93;97124.22;4471447;32;34662;-80
2023/03/11 01:25:28;;;;;;;0.40;0.40;;;;;;;9.53;60.89;97128.13;4485502;32;36052;-79
2023/03/11 01:27:58;;;;;;;0.40;0.40;;;;;;;9.67;60.36;97128.37;4471554;32;34565;-79
2023/03/11 01:30:27;;;;;;;0.30;0.30;;;;;;;9.59;61.23;97122.66;4471406;32;34323;-79
2023/03/11 01:32:56;;;;;;;7.03;3.30;;;;;;;9.33;61.54;97122.91;4471512;32;33894;-83
2023/03/11 01:35:26;;;;;;;0.40;0.40;;;;;;;9.58;61.26;97139.16;4471463;32;35030;-82
2023/03/11 01:37:55;;;;;;;1.52;1.42;;;;;;;9.76;60.92;97132.34;4485433;32;34287;-80
2023/03/11 01:40:31;;;;;;;0.40;0.40;;;;;;;9.78;60.86;97137.47;4485677;32;33374;-79
2023/03/11 01:43:02;;;;;;;0.40;0.40;;;;;;;9.63;60.65;97134.59;4485750;32;34298;-80
2023/03/11 01:45:35;;;;;;;0.40;0.40;;;;;;;9.55;61.20;97122.84;4471499;32;35472;-82
2023/03/11 01:48:03;;;;;;;0.40;0.40;;;;;;;9.66;60.98;97134.47;4485550;32;35320;-80
2023/03/11 01:50:36;;;;;;;0.40;0.40;;;;;;;9.58;60.98;97128.78;4485397;32;33505;-79
2023/03/11 01:53:04;;;;;;;0.30;0.30;;;;;;;9.87;60.22;97127.50;4485769;32;34025;-83
2023/03/11 01:55:33;;;;;;;0.37;0.37;;;;;;;9.70;61.19;97131.75;4486247;32;35847;-83
2023/03/11 01:58:05;;;;;;;0.50;0.50;;;;;;;9.54;61.17;97136.75;4473530;32;35167;-80
2023/03/11 02:00:35;;;;;;;0.40;0.40;;;;;;;9.25;62.16;97121.47;4473515;32;33360;-79
2023/03/11 02:03:18;;;;;;;0.30;0.30;;;;;;;9.39;62.05;97122.63;4487554;32;35314;-81
2023/03/11 02:05:46;;;;;;;0.40;0.40;;;;;;;9.41;62.09;97126.87;4460625;32;35865;-81
2023/03/11 02:08:15;;;;;;;0.40;0.40;;;;;;;9.67;60.42;97143.97;4473174;32;35226;-79
2023/03/11 02:10:43;;;;;;;0.40;0.40;;;;;;;9.49;61.03;97144.72;4487398;32;33652;-80
2023/03/11 02:13:14;;;;;;;0.37;0.37;;;;;;;9.72;60.69;97140.31;4473661;32;32878;-80
2023/03/11 02:15:43;;;;;;;0.32;0.32;;;;;;;9.70;60.67;97131.75;4473044;32;35032;-80
2023/03/11 02:18:17;;;;;;;0.50;0.50;;;;;;;9.84;59.80;97134.59;4472999;32;34426;-78
2023/03/11 02:21:07;;;;;;;0.30;0.30;;;;;;;9.75;59.79;97124.59;4473709;32;34145;-79
2023/03/11 02:23:44;;;;;;;0.50;0.50;;;;;;;9.82;58.53;97121.66;4472924;32;33771;-80
2023/03/11 02:26:29;;;;;;;0.40;0.40;;;;;;;9.77;59.85;97125.38;4473042;32;34911;-81
2023/03/11 02:28:58;;;;;;;0.30;0.30;;;;;;;9.80;59.50;97115.69;4487299;32;34437;-82
2023/03/11 02:31:27;;;;;;;0.30;0.30;;;;;;;9.67;59.13;97117.12;4487346;32;33442;-82
2023/03/11 02:33:57;;;;;;;0.40;0.40;;;;;;;9.84;59.10;97130.22;4487021;32;34715;-84
2023/03/11 02:36:40;;;;;;;0.30;0.30;;;;;;;9.64;59.29;97128.50;4487345;32;34703;-79
2023/03/11 02:39:08;;;;;;;0.30;0.30;;;;;;;9.61;58.58;97118.22;4487346;32;34069;-79
2023/03/11 02:41:41;;;;;;;0.40;0.40;;;;;;;9.68;58.55;97130.06;4473179;32;33578;-80
2023/03/11 02:44:10;;;;;;;0.40;0.40;;;;;;;9.81;57.36;97135.59;4472918;32;33786;-79
2023/03/11 02:46:40;;;;;;;0.40;0.40;;;;;;;9.62;57.38;97132.94;4472987;32;34641;-81
2023/03/11 02:49:09;;;;;;;0.98;0.98;;;;;;;9.74;57.34;97144.56;4473095;32;34594;-80
2023/03/11 02:51:38;;;;;;;0.37;0.37;;;;;;;9.84;56.08;97145.00;4472986;32;33407;-81
2023/03/11 02:54:06;;;;;;;0.30;0.30;;;;;;;10.02;56.09;97140.75;4486880;32;34039;-82
2023/03/11 02:56:35;;;;;;;0.30;0.30;;;;;;;9.71;56.36;97146.44;4473120;32;34935;-83
2023/03/11 02:59:03;;;;;;;0.40;0.40;;;;;;;9.79;55.20;97160.78;4486856;32;34483;-81
2023/03/11 03:01:32;;;;;;;0.40;0.40;;;;;;;9.26;56.47;97158.66;4486844;32;33728;-84
2023/03/11 03:04:00;;;;;;;0.40;0.40;;;;;;;9.49;55.89;97155.12;4472785;32;34078;-81
2023/03/11 03:06:31;;;;;;;0.40;0.40;;;;;;;9.27;56.44;97161.19;4472712;32;34410;-80
2023/03/11 03:08:59;;;;;;;0.30;0.30;;;;;;;9.56;55.35;97147.91;4460188;32;35223;-84
2023/03/11 03:11:28;;;;;;;0.40;0.40;;;;;;;9.11;56.91;97160.13;4472882;32;34337;-80
2023/03/11 03:13:56;;;;;;;0.40;0.40;;;;;;;9.02;55.68;97166.53;4487136;32;33518;-80
2023/03/11 03:16:25;;;;;;;0.30;0.30;;;;;;;8.98;56.62;97175.34;4472758;32;35129;-80
2023/03/11 03:18:53;;;;;;;0.30;0.30;;;;;;;9.03;55.93;97177.75;4486991;32;34194;-85
2023/03/11 03:21:22;;;;;;;0.47;0.47;;;;;;;9.25;55.57;97180.37;4486715;32;34156;-80
2023/03/11 03:23:51;;;;;;;0.40;0.40;;;;;;;9.15;56.04;97199.81;4486635;32;34707;-79
2023/03/11 03:26:19;;;;;;;0.40;0.40;;;;;;;8.98;54.45;97164.94;4486777;32;34951;-79
2023/03/11 03:28:47;;;;;;;0.43;0.43;;;;;;;9.27;53.92;97181.97;4486597;32;34336;-78
2023/03/11 03:31:16;;;;;;;0.40;0.40;;;;;;;8.95;53.68;97188.47;4486964;32;33548;-80
2023/03/11 03:33:45;;;;;;;0.40;0.40;;;;;;;8.58;54.06;97191.59;4486877;32;34374;-79
2023/03/11 03:36:14;;;;;;;0.40;0.40;;;;;;;8.81;52.98;97193.34;4486535;32;35660;-78
2023/03/11 03:38:43;;;;;;;0.40;0.40;;;;;;;8.97;52.17;97204.81;4472930;32;34457;-79
2023/03/11 03:41:14;;;;;;;0.50;0.50;;;;;;;8.64;50.60;97187.00;4486530;32;34290;-77
2023/03/11 03:43:43;;;;;;;0.47;0.47;;;;;;;8.21;50.64;97179.97;4473045;32;33824;-80
2023/03/11 03:46:12;;;;;;;0.40;0.40;;;;;;;8.10;52.04;97194.16;4486405;32;35036;-85
2023/03/11 03:48:41;;;;;;;0.93;0.93;;;;;;;8.32;51.93;97195.97;4486723;32;34428;-80
2023/03/11 03:51:11;;;;;;;0.40;0.40;;;;;;;8.28;52.17;97182.25;4486690;32;33759;-82
2023/03/11 03:53:41;;;;;;;0.40;0.40;;;;;;;8.42;52.14;97196.47;4472695;32;35417;-79
2023/03/11 03:56:11;;;;;;;0.40;0.40;;;;;;;8.06;52.37;97179.59;4486687;32;35866;-79
2023/03/11 03:58:40;;;;;;;0.45;0.45;;;;;;;8.11;52.98;97198.41;4486789;32;33816;-79
2023/03/11 04:01:10;;;;;;;0.45;0.45;;;;;;;8.21;52.46;97188.56;4472485;32;33498;-80
2023/03/11 04:03:39;;;;;;;0.40;0.40;;;;;;;8.52;51.51;97188.34;4472758;32;33772;-79
2023/03/11 04:06:16;;;;;;;0.40;0.40;;;;;;;8.36;52.10;97194.94;4486643;32;35156;-80
2023/03/11 04:08:45;;;;;;;0.40;0.40;;;;;;;8.10;50.29;97191.56;4472845;32;33939;-80
2023/03/11 04:11:14;;;;;;;0.40;0.40;;;;;;;8.18;51.91;97206.00;4472338;32;32891;-80
2023/03/11 04:13:43;;;;;;;0.40;0.40;;;;;;;8.19;51.24;97203.34;4472508;32;33800;-80
2023/03/11 04:16:18;;;;;;;0.40;0.40;;;;;;;7.75;51.90;97211.75;4472807;32;35870;-80
2023/03/11 04:18:47;;;;;;;0.40;0.40;;;;;;;7.66;51.88;97227.59;4471730;32;34393;-82
2023/03/11 04:21:16;;;;;;;0.40;0.40;;;;;;;7.45;50.69;97218.78;4486577;32;33626;-81
2023/03/11 04:23:45;;;;;;;0.40;0.40;;;;;;;7.34;49.03;97226.03;4472048;32;33041;-81
2023/03/11 04:26:13;;;;;;;0.62;0.62;;;;;;;7.39;49.03;97235.38;4486582;32;35055;-81
2023/03/11 04:28:42;;;;;;;0.43;0.43;;;;;;;7.35;48.70;97220.81;4486251;32;34544;-79
2023/03/11 04:31:11;;;;;;;0.40;0.40;;;;;;;7.21;48.25;97223.00;4472259;32;32682;-79
2023/03/11 04:33:39;;;;;;;0.40;0.40;;;;;;;7.14;48.40;97230.09;4486164;32;33877;-81
2023/03/11 04:36:09;;;;;;;1.50;1.40;;;;;;;7.26;46.21;97215.09;4472290;32;35056;-80
2023/03/11 04:38:38;;;;;;;0.40;0.40;;;;;;;7.14;47.38;97218.91;4486098;32;34571;-79
2023/03/11 04:41:07;;;;;;;0.40;0.40;;;;;;;7.21;46.98;97210.06;4472432;32;33676;-80
2023/03/11 04:43:36;;;;;;;0.40;0.40;;;;;;;7.13;47.03;97196.50;4472542;32;34122;-78
2023/03/11 04:46:04;;;;;;;0.40;0.40;;;;;;;7.29;45.95;97208.09;4472061;32;35840;-78
2023/03/11 04:48:33;;;;;;;0.40;0.40;;;;;;;7.17;46.73;97185.19;4459321;32;34204;-78
2023/03/11 04:51:02;;;;;;;0.60;0.60;;;;;;;6.66;45.94;97207.41;4486399;32;33370;-81
2023/03/11 04:53:30;;;;;;;0.40;0.40;;;;;;;6.96;44.68;97199.62;4486184;32;34200;-78
2023/03/11 04:55:58;;;;;;;0.40;0.40;;;;;;;6.82;45.62;97213.81;4472199;32;35067;-79
2023/03/11 04:58:27;;;;;;;0.50;0.50;;;;;;;7.16;44.39;97230.06;4472248;32;35204;-79
2023/03/11 05:00:55;;;;;;;0.50;0.50;;;;;;;6.47;44.15;97222.62;4486286;32;33511;-81
2023/03/11 05:03:24;;;;;;;1.33;1.25;;;;;;;6.47;44.73;97201.94;4469986;32;34001;-80
2023/03/11 05:05:55;;;;;;;31.25;1.77;;;;;;;6.38;45.12;97202.19;4471813;32;34913;-78
2023/03/11 05:08:24;;;;;;;0.60;0.60;;;;;;;6.31;46.17;97188.59;4485907;32;34568;-77
2023/03/11 05:10:53;;;;;;;0.50;0.50;;;;;;;6.15;46.77;97195.94;4486043;32;33443;-80
2023/03/11 05:13:22;;;;;;;0.40;0.40;;;;;;;5.99;48.03;97168.84;4483898;32;32996;-78
2023/03/11 05:15:51;;;;;;;0.88;0.88;;;;;;;5.83;47.66;97196.78;4484701;32;34263;-78
2023/03/11 05:18:20;;;;;;;0.55;0.55;;;;;;;6.09;48.02;97201.28;4471770;32;34525;-85
2023/03/11 05:20:48;;;;;;;0.73;0.73;;;;;;;6.07;48.13;97223.69;4471514;32;33084;-76
2023/03/11 05:23:17;;;;;;;0.50;0.50;;;;;;;5.78;48.50;97183.97;4485790;32;33943;-77
2023/03/11 05:25:45;;;;;;;0.50;0.50;;;;;;;5.78;48.64;97240.78;4485290;32;35938;-78
2023/03/11 05:28:14;;;;;;;0.57;0.57;;;;;;;5.94;49.24;97227.47;4485662;32;34455;-83
2023/03/11 05:30:43;;;;;;;0.50;0.50;;;;;;;6.12;49.36;97242.50;4484531;32;33365;-77
2023/03/11 05:33:12;;;;;;;0.98;0.98;;;;;;;6.04;49.76;97244.47;4485619;32;34620;-76
2023/03/11 05:35:41;;;;;;;0.50;0.50;;;;;;;5.75;49.31;97250.34;4485740;32;35947;-76
2023/03/11 05:38:11;;;;;;;0.60;0.60;;;;;;;5.54;49.54;97254.31;4485339;32;34354;-77
2023/03/11 05:40:44;;;;;;;0.60;0.60;;;;;;;5.08;50.71;97261.38;4482994;32;33317;-79
2023/03/11 05:43:12;;;;;;;0.50;0.50;;;;;;;5.45;49.80;97286.34;4485663;32;34768;-79
2023/03/11 05:45:41;;;;;;;0.50;0.50;;;;;;;5.48;49.54;97266.47;4484251;32;35897;-80
2023/03/11 05:48:11;;;;;;;0.50;0.50;;;;;;;5.89;48.88;97289.59;4484939;32;34478;-79
2023/03/11 05:50:39;;;;;;;0.50;0.50;;;;;;;6.16;48.27;97272.56;4485557;32;33744;-81
2023/03/11 05:53:08;;;;;;;0.50;0.50;;;;;;;5.53;49.07;97231.97;4484977;32;34336;-77
2023/03/11 05:55:36;;;;;;;0.50;0.50;;;;;;;5.26;49.67;97283.38;4485229;32;35051;-78
2023/03/11 05:58:05;;;;;;;0.60;0.60;;;;;;;5.50;49.43;97254.38;4484999;32;35233;-75
2023/03/11 06:00:33;;;;;;;0.50;0.50;;;;;;;5.49;48.98;97247.53;4485358;32;32955;-75
2023/03/11 06:03:03;;;;;;;0.50;0.50;;;;;;;5.51;49.53;97256.06;4483706;32;34618;-77
2023/03/11 06:05:31;;;;;;;0.55;0.55;;;;;;;5.56;49.77;97268.88;4484913;32;35953;-76
2023/03/11 06:07:59;;;;;;;0.50;0.50;;;;;;;5.80;48.89;97264.00;4484908;32;34643;-76
2023/03/11 06:10:28;;;;;;;1.75;1.20;;;;;;;5.95;49.26;97270.50;4485146;32;33488;-81
2023/03/11 06:12:56;;;;;;;0.60;0.60;;;;;;;5.45;50.01;97276.88;4457766;32;32386;-76
2023/03/11 06:15:25;;;;;;;0.60;0.60;;;;;;;5.76;49.51;97281.31;4484906;32;35038;-72
2023/03/11 06:17:54;;;;;;;0.50;0.50;;;;;;;5.61;48.86;97266.19;4484779;32;34406;-76
2023/03/11 06:20:22;;;;;;;0.50;0.50;;;;;;;5.86;48.82;97293.09;4483935;32;34568;-76
2023/03/11 06:22:51;;;;;;;0.62;0.62;;;;;;;5.40;49.52;97289.06;4484781;32;34667;-76
2023/03/11 06:25:20;;;;;;;0.85;0.80;;;;;;;5.65;49.13;97317.72;4483654;32;34461;-75
2023/03/11 06:27:51;;;;;;;0.50;0.50;;;;;;;5.55;49.32;97323.13;4483263;32;33723;-76
2023/03/11 06:30:20;;;;;;;1.77;1.67;;;;;;;5.81;48.89;97336.28;4485067;32;34240;-76
2023/03/11 06:32:50;;;;;;;0.50;0.50;;;;;;;5.73;48.37;97345.94;4484845;32;33875;-75
2023/03/11 06:35:19;;;;;;;1.15;1.05;;;;;;;5.73;48.48;97338.19;4484995;32;35091;-76
2023/03/11 06:37:48;;;;;;;0.60;0.60;;;;;;;5.87;48.53;97354.19;4467413;32;34960;-76
2023/03/11 06:40:17;;;;;;;0.70;0.70;;;;;;;6.20;48.04;97367.22;4469055;32;34370;-77
2023/03/11 06:42:46;;;;;;;0.50;0.50;;;;;;;6.21;47.87;97368.94;4471276;32;33996;-82
2023/03/11 06:45:15;;;;;;;0.60;0.60;;;;;;;6.53;47.29;97385.34;4471516;32;35038;-79
2023/03/11 06:47:46;;;;;;;0.60;0.60;;;;;;;6.64;46.50;97398.00;4471559;32;35158;-77
2023/03/11 06:50:16;;;;;;;0.60;0.60;;;;;;;5.92;47.52;97392.00;4471492;32;33539;-77
2023/03/11 06:52:44;;;;;;;0.70;0.70;;;;;;;5.70;47.53;97379.59;4471191;32;33978;-84
2023/03/11 06:55:12;;;;;;;0.50;0.50;;;;;;;5.80;46.69;97406.03;4483033;32;35063;-77
2023/03/11 06:57:43;;;;;;;1.27;0.80;;;;;;;5.53;47.01;97371.37;4471878;32;35214;-75
2023/03/11 07:00:13;;;;;;;0.50;0.50;;;;;;;5.12;47.73;97403.19;4446348;32;32745;-77
2023/03/11 07:02:42;;;;;;;0.70;0.70;;;;;;;6.07;47.18;97404.56;4471907;32;33471;-76
2023/03/11 07:05:11;;;;;;;0.60;0.60;;;;;;;6.48;45.35;97394.09;4446167;32;33983;-77
2023/03/11 07:07:39;;;;;;;1.02;1.02;;;;;;;6.18;45.09;97410.34;4471623;32;34159;-76
2023/03/11 07:10:09;;;;;;;0.60;0.60;;;;;;;6.52;44.51;97425.00;4459262;32;33993;-76
2023/03/11 07:12:38;;;;;;;0.65;0.65;;;;;;;5.87;45.17;97413.59;4458569;32;33912;-77
2023/03/11 07:15:07;;;;;;;0.60;0.60;;;;;;;6.48;44.25;97409.59;4471005;32;34064;-81
2023/03/11 07:17:36;;;;;;;0.50;0.50;;;;;;;6.89;43.91;97400.75;4470834;32;34195;-79
2023/03/11 07:20:04;;;;;;;0.73;0.73;;;;;;;6.79;43.46;97410.53;4472247;32;34352;-89
2023/03/11 07:22:33;;;;;;;0.40;0.40;;;;;;;6.44;43.35;97406.25;4471912;32;34875;-78
2023/03/11 07:25:01;;;;;;;0.52;0.52;;;;;;;6.13;44.34;97399.25;4485850;32;35466;-81
2023/03/11 07:27:29;;;;;;;0.50;0.50;;;;;;;6.74;44.12;97408.94;4458911;32;33812;-80
2023/03/11 07:30:00;;;;;;;0.50;0.50;;;;;;;6.40;43.28;97407.22;4456106;32;33304;-79
2023/03/11 07:32:28;;;;;;;0.60;0.60;;;;;;;6.90;42.62;97404.19;4456735;32;34279;-81
2023/03/11 07:34:57;;;;;;;0.50;0.50;;;;;;;6.43;43.22;97386.47;4471566;32;34660;-79
2023/03/11 07:37:25;;;;;;;0.52;0.52;;;;;;;6.95;42.42;97384.22;4486291;32;34342;-77
2023/03/11 07:39:53;;;;;;;0.40;0.40;;;;;;;7.21;41.86;97392.09;4471612;32;31874;-79
2023/03/11 07:42:22;;;;;;;0.40;0.40;;;;;;;7.49;41.98;97364.56;4471966;32;33740;-78
2023/03/11 07:44:52;;;;;;;0.40;0.40;;;;;;;6.59;43.50;97376.56;4486292;32;35775;-78
2023/03/11 07:47:20;;;;;;;0.40;0.40;;;;;;;6.89;42.60;97374.06;4471749;32;35278;-80
2023/03/11 07:49:48;;;;;;;0.50;0.50;;;;;;;6.35;43.82;97357.38;4485750;32;34196;-81
2023/03/11 07:52:17;;;;;;;0.50;0.50;;;;;;;5.97;44.81;97383.28;4485256;32;33752;-78
2023/03/11 07:54:46;;;;;;;0.50;0.50;;;;;;;5.43;45.21;97388.78;4458971;32;34518;-78
2023/03/11 07:57:16;;;;;;;0.50;0.50;;;;;;;5.79;44.80;97389.69;4486025;32;34541;-79
2023/03/11 07:59:44;;;;;;;0.50;0.50;;;;;;;5.63;45.22;97393.50;4472298;32;33584;-79
2023/03/11 08:02:12;;;;;;;0.60;0.60;;;;;;;5.06;45.86;97386.97;4486314;32;34158;-77
2023/03/11 08:04:41;;;;;;;0.73;0.73;;;;;;;4.70;46.76;97364.44;4471834;32;35073;-77
2023/03/11 08:07:09;;;;;;;0.98;0.98;;;;;;;4.80;45.89;97354.81;4485902;32;34485;-76
2023/03/11 08:09:38;;;;;;;0.50;0.50;;;;;;;5.28;46.64;97356.41;4455691;32;33320;-77
2023/03/11 08:12:07;;;;;;;0.40;0.40;;;;;;;6.41;45.01;97380.50;4447308;32;33255;-79
2023/03/11 08:14:35;;;;;;;0.43;0.43;;;;;;;6.69;43.50;97369.41;4469152;32;33457;-82
2023/03/11 08:17:04;;;;;;;0.95;0.70;;;;;;;5.70;45.40;97400.25;4458594;32;33715;-76
2023/03/11 08:19:32;;;;;;;2.80;2.55;;;;;;;5.26;45.65;97410.63;4471695;32;32343;-82
2023/03/11 08:22:02;;;;;;;1.67;1.58;;;;;;;5.95;45.40;97438.41;4472186;32;33895;-84
2023/03/11 08:24:30;;;;;;;0.40;0.40;;;;;;;7.06;44.21;97420.13;4468930;32;35259;-81
2023/03/11 08:26:59;;;;;;;0.50;0.50;;;;;;;6.62;43.92;97403.19;4456215;32;34085;-86
2023/03/11 08:29:27;;;;;;;0.40;0.40;;;;;;;6.86;42.93;97400.84;4470262;32;33329;-78
2023/03/11 08:31:56;;;;;;;0.45;0.45;;;;;;;6.75;42.31;97377.00;4468992;32;33799;-78
2023/03/11 08:34:26;;;;;;;0.40;0.40;;;;;;;7.24;42.77;97375.62;4470066;32;35108;-79
2023/03/11 08:36:54;;;;;;;0.40;0.40;;;;;;;7.13;42.27;97368.19;4443510;32;33922;-80
2023/03/11 08:39:23;;;;;;;0.40;0.40;;;;;;;7.02;42.57;97355.56;4440888;32;34201;-79
2023/03/11 08:41:51;;;;;;;0.50;0.50;;;;;;;7.35;43.44;97365.81;4455076;32;34716;-81
2023/03/11 08:44:19;;;;;;;0.40;0.40;;;;;;;6.90;43.04;97368.84;4468133;32;35163;-75
2023/03/11 08:46:48;;;;;;;2.35;2.15;;;;;;;6.93;42.24;97378.25;4468580;32;34364;-76
2023/03/11 08:49:16;;;;;;;0.73;0.73;;;;;;;7.46;42.86;97391.38;4468963;32;33744;-74
2023/03/11 08:51:44;;;;;;;0.47;0.47;;;;;;;7.18;42.98;97427.56;4467133;32;34772;-78
2023/03/11 08:54:13;;;;;;;0.75;0.75;;;;;;;7.52;42.27;97395.56;4468503;32;35081;-78
2023/03/11 08:56:41;;;;;;;2.17;1.33;;;;;;;8.34;41.49;97411.97;4469895;32;34446;-75
2023/03/11 08:59:10;;;;;;;0.70;0.70;;;;;;;8.79;42.15;97418.28;4467760;32;33517;-75
2023/03/11 09:01:38;;;;;;;0.80;0.80;;;;;;;9.22;39.29;97412.44;4466952;32;32843;-76
2023/03/11 09:04:07;;;;;;;0.40;0.40;;;;;;;8.35;39.59;97424.91;4467970;32;34754;-76
2023/03/11 09:06:35;;;;;;;0.47;0.47;;;;;;;8.20;40.32;97432.31;4468988;32;34108;-75
2023/03/11 09:09:04;;;;;;;0.40;0.40;;;;;;;8.03;40.35;97422.47;4467863;32;33490;-79
2023/03/11 09:11:36;;;;;;;0.47;0.47;;;;;;;7.91;40.43;97428.91;4468123;32;34700;-76
2023/03/11 09:14:04;;;;;;;0.40;0.40;;;;;;;8.01;41.66;97440.66;4468300;32;35807;-76
2023/03/11 09:16:33;;;;;;;0.40;0.40;;;;;;;8.35;40.10;97450.00;4455219;32;33058;-76
2023/03/11 09:19:06;;;;;;;0.60;0.60;;;;;;;8.42;40.37;97472.25;4455443;32;32232;-77
2023/03/11 09:21:36;;;;;;;0.43;0.43;;;;;;;7.63;41.62;97478.13;4455823;32;32346;-77
2023/03/11 09:24:05;;;;;;;0.40;0.40;;;;;;;6.53;42.92;97488.78;4472653;32;35889;-77
2023/03/11 09:26:33;;;;;;;0.40;0.40;;;;;;;6.36;43.46;97488.31;4484970;32;35327;-74
2023/03/11 09:29:02;;;;;;;0.50;0.50;;;;;;;6.70;42.81;97501.28;4470826;32;33480;-75
2023/03/11 09:31:31;;;;;;;0.40;0.40;;;;;;;5.88;43.41;97515.22;4484787;32;33966;-75
2023/03/11 09:33:59;;;;;;;0.40;0.40;;;;;;;6.18;43.89;97510.28;4458074;32;35196;-74
2023/03/11 09:36:28;;;;;;;0.52;0.52;;;;;;;5.51;44.15;97526.28;4470219;32;32844;-74
2023/03/11 09:38:56;;;;;;;0.50;0.50;;;;;;;5.21;44.42;97507.09;4477389;32;33653;-73
2023/03/11 09:41:35;;;;;;;0.65;0.65;;;;;;;5.78;44.68;97514.53;4470914;32;33718;-73
2023/03/11 09:44:33;;;;;;;2.97;2.65;;;;;;;5.71;45.21;97502.63;4473246;32;35121;-74
2023/03/11 09:47:23;;;;;;;0.52;0.52;;;;;;;7.29;43.51;97513.56;4470122;32;35312;-75
2023/03/11 09:50:05;;;;;;;0.43;0.43;;;;;;;7.76;42.11;97519.16;4471658;32;33929;-75
2023/03/11 09:53:01;;;;;;;0.40;0.40;;;;;;;8.11;40.92;97530.22;4485386;32;33848;-74
2023/03/11 09:56:03;;;;;;;0.40;0.40;;;;;;;7.78;40.86;97512.19;4485358;32;35750;-73
2023/03/11 09:58:39;;;;;;;0.50;0.50;;;;;;;8.08;41.05;97530.34;4482972;32;35208;-73
2023/03/11 10:01:36;;;;;;;0.40;0.40;;;;;;;7.51;40.92;97515.56;4485428;32;33502;-73
2023/03/11 10:04:30;;;;;;;0.40;0.40;;;;;;;6.77;41.87;97540.78;4478624;32;33802;-73
2023/03/11 10:07:00;;;;;;;0.40;0.40;;;;;;;7.12;41.81;97529.53;4485232;32;35137;-76
2023/03/11 10:09:42;;;;;;;0.40;0.40;;;;;;;7.62;41.30;97546.34;4471176;32;33670;-74
2023/03/11 10:12:28;;;;;;;0.40;0.40;;;;;;;7.22;41.33;97535.34;4471065;32;33412;-73
2023/03/11 10:15:22;;;;;;;0.50;0.50;;;;;;;7.26;42.12;97541.28;4485187;32;33965;-75
2023/03/11 10:17:51;;;;;;;0.40;0.40;;;;;;;7.46;41.47;97535.56;4487081;32;36143;-74
2023/03/11 10:20:33;;;;;;;0.40;0.40;;;;;;;7.59;41.76;97558.50;4473233;32;34488;-74
2023/03/11 10:23:16;;;;;;;0.40;0.40;;;;;;;7.53;41.38;97578.53;4473093;32;34460;-72
2023/03/11 10:25:54;;;;;;;0.40;0.40;;;;;;;6.48;43.18;97578.53;4486883;32;34735;-73
2023/03/11 10:28:36;;;;;;;0.55;0.55;;;;;;;6.26;42.60;97603.97;4473138;32;35041;-73
2023/03/11 10:31:20;;;;;;;0.50;0.50;;;;;;;6.42;43.09;97625.19;4472985;32;35072;-74
2023/03/11 10:34:00;;;;;;;0.50;0.50;;;;;;;6.21;44.38;97636.84;4472866;32;33609;-75
2023/03/11 10:36:37;;;;;;;0.50;0.50;;;;;;;5.91;44.68;97646.03;4472775;32;33090;-76
2023/03/11 10:39:05;;;;;;;0.50;0.50;;;;;;;6.00;44.57;97656.19;4486943;32;36010;-72
2023/03/11 10:41:54;;;;;;;0.40;0.40;;;;;;;6.38;44.80;97652.84;4473086;32;34480;-73
2023/03/11 10:44:38;;;;;;;0.40;0.40;;;;;;;6.04;44.47;97637.19;4473148;32;34355;-74
2023/03/11 10:47:14;;;;;;;0.40;0.40;;;;;;;6.96;44.19;97639.50;4472887;32;34067;-75
2023/03/11 10:49:43;;;;;;;0.40;0.40;;;;;;;9.14;41.72;97624.81;4472930;32;34902;-73
2023/03/11 10:52:12;;;;;;;0.40;0.40;;;;;;;10.97;38.34;97627.75;4486673;32;35364;-74
2023/03/11 10:54:46;;;;;;;0.30;0.30;;;;;;;10.01;38.48;97633.94;4472823;32;33584;-75
2023/03/11 10:57:36;;;;;;;0.40;0.40;;;;;;;10.01;38.52;97620.94;4486730;32;34753;-74
2023/03/11 11:00:16;;;;;;;0.40;0.40;;;;;;;9.97;39.49;97629.75;4472865;32;34991;-74
2023/03/11 11:02:58;;;;;;;1.05;0.60;;;;;;;9.66;39.48;97617.81;4486811;32;34487;-73
2023/03/11 11:05:34;;;;;;;0.40;0.40;;;;;;;11.96;36.10;97611.47;4473221;32;33834;-75
2023/03/11 11:08:06;;;;;;;0.30;0.30;;;;;;;10.37;36.31;97584.09;4486895;32;33886;-74
2023/03/11 11:10:35;;;;;;;0.30;0.30;;;;;;;10.66;36.99;97613.38;4486693;32;34958;-74
2023/03/11 11:13:07;;;;;;;0.40;0.40;;;;;;;11.67;35.14;97607.53;4486623;32;34463;-75
2023/03/11 11:15:51;;;;;;;0.40;0.40;;;;;;;12.55;33.68;97620.16;4486688;32;34213;-74
2023/03/11 11:18:38;;;;;;;0.40;0.40;;;;;;;11.85;34.68;97621.53;4472903;32;34151;-72
2023/03/11 11:21:28;;;;;;;0.40;0.40;;;;;;;13.38;32.74;97624.03;4486859;32;35203;-73
2023/03/11 11:24:22;;;;;;;0.40;0.40;;;;;;;12.67;32.76;97631.75;4459497;32;33757;-73
2023/03/11 11:27:16;;;;;;;0.57;0.57;;;;;;;14.22;31.30;97628.47;4464160;32;32853;-74
2023/03/11 11:29:46;;;;;;;0.30;0.30;;;;;;;12.78;32.28;97637.34;4486476;32;33850;-74
2023/03/11 11:32:16;;;;;;;0.32;0.32;;;;;;;12.80;32.13;97648.56;4486589;32;35083;-71
2023/03/11 11:35:04;;;;;;;0.30;0.30;;;;;;;10.78;34.98;97618.09;4471598;32;34440;-72
2023/03/11 11:37:43;;;;;;;0.30;0.30;;;;;;;10.39;35.69;97644.75;4486209;32;33759;-72
2023/03/11 11:40:14;;;;;;;0.37;0.37;;;;;;;10.26;36.71;97635.66;4472426;32;33878;-73
2023/03/11 11:42:51;;;;;;;0.30;0.30;;;;;;;10.22;37.57;97670.50;4472560;32;35756;-74
2023/03/11 11:45:42;;;;;;;0.40;0.40;;;;;;;8.45;38.91;97656.34;4472478;32;35078;-75
2023/03/11 11:48:22;;;;;;;0.40;0.40;;;;;;;8.26;40.12;97678.44;4472762;32;33532;-74
2023/03/11 11:50:52;;;;;;;0.40;0.40;;;;;;;8.56;39.15;97658.59;4486541;32;33974;-72
2023/03/11 11:53:34;;;;;;;0.40;0.40;;;;;;;8.50;39.71;97675.19;4472305;32;35144;-71
2023/03/11 11:56:02;;;;;;;0.40;0.40;;;;;;;7.67;41.22;97680.03;4472547;32;35112;-73
2023/03/11 11:58:31;;;;;;;0.40;0.40;;;;;;;8.35;40.37;97701.53;4459568;32;32642;-74
2023/03/11 12:01:18;;;;;;;0.40;0.40;;;;;;;7.91;40.40;97695.84;4472367;32;34555;-73